createdAt,value
2023-06-22T00:00:05.983Z,25.23
2023-06-22T00:01:05.987Z,25.29
2023-06-22T00:02:05.921Z,25.26
2023-06-22T00:03:05.966Z,25.28
2023-06-22T00:04:05.929Z,25.17
2023-06-22T00:05:05.848Z,25.23
2023-06-22T00:06:05.815Z,25.21
2023-06-22T00:07:05.780Z,25.18
2023-06-22T00:08:05.791Z,25.17
2023-06-22T00:09:05.730Z,25.23
2023-06-22T00:10:05.693Z,25.21
2023-06-22T00:11:05.680Z,25.25
2023-06-22T00:12:05.638Z,25.28
2023-06-22T00:13:05.616Z,25.18
2023-06-22T00:14:05.588Z,25.18
2023-06-22T00:15:05.561Z,25.16
2023-06-22T00:16:05.531Z,25.23
2023-06-22T00:17:05.515Z,25.22
2023-06-22T00:18:05.575Z,25.18
2023-06-22T00:19:05.463Z,25.17
2023-06-22T00:20:05.452Z,25.17
2023-06-22T00:21:05.401Z,25.22
2023-06-22T00:22:05.382Z,25.18
2023-06-22T00:23:05.346Z,25.28
2023-06-22T00:24:05.312Z,25.25
2023-06-22T00:25:05.280Z,25.29
2023-06-22T00:26:05.260Z,25.22
2023-06-22T00:27:05.239Z,25.13
2023-06-22T00:28:05.213Z,25.18
2023-06-22T00:29:05.169Z,25.18
2023-06-22T00:30:05.151Z,25.21
2023-06-22T00:31:05.191Z,25.17
2023-06-22T00:32:05.093Z,25.22
2023-06-22T00:33:05.104Z,25.22
2023-06-22T00:34:05.042Z,25.23
2023-06-22T00:35:05.009Z,25.21
2023-06-22T00:36:04.975Z,25.29
2023-06-22T00:37:04.963Z,25.28
2023-06-22T00:38:04.930Z,25.22
2023-06-22T00:39:04.905Z,25.23
2023-06-22T00:40:04.886Z,25.23
2023-06-22T00:41:04.852Z,25.23
2023-06-22T00:42:04.820Z,25.31
2023-06-22T00:43:04.798Z,25.23
2023-06-22T00:44:04.770Z,25.31
2023-06-22T00:45:04.744Z,25.28
2023-06-22T00:46:04.726Z,25.26
2023-06-22T00:47:05.263Z,25.25
2023-06-22T00:48:04.728Z,25.26
2023-06-22T00:49:04.624Z,25.23
2023-06-22T00:50:04.599Z,25.29
2023-06-22T00:51:04.588Z,25.25
2023-06-22T00:52:04.542Z,25.25
2023-06-22T00:53:04.525Z,25.35
2023-06-22T00:54:04.489Z,25.28
2023-06-22T00:55:04.455Z,25.23
2023-06-22T00:56:04.435Z,25.26
2023-06-22T00:57:04.405Z,25.25
2023-06-22T00:58:04.382Z,25.26
2023-06-22T00:59:04.353Z,25.22
2023-06-22T01:00:04.321Z,25.26
2023-06-22T01:01:04.336Z,25.21
2023-06-22T01:02:04.271Z,25.25
2023-06-22T01:03:04.363Z,25.32
2023-06-22T01:04:04.294Z,25.25
2023-06-22T01:05:04.181Z,25.22
2023-06-22T01:06:04.150Z,25.18
2023-06-22T01:07:04.128Z,25.14
2023-06-22T01:08:04.100Z,25.14
2023-06-22T01:09:04.083Z,25.10
2023-06-22T01:10:04.047Z,25.14
2023-06-22T01:11:04.049Z,25.13
2023-06-22T01:12:03.990Z,25.04
2023-06-22T01:13:03.962Z,25.04
2023-06-22T01:14:03.938Z,25.04
2023-06-22T01:15:03.902Z,25.04
2023-06-22T01:16:03.901Z,24.98
2023-06-22T01:17:03.853Z,24.95
2023-06-22T01:18:03.824Z,24.91
2023-06-22T01:19:03.799Z,24.89
2023-06-22T01:20:03.780Z,24.95
2023-06-22T01:21:03.761Z,24.84
2023-06-22T01:22:03.716Z,24.84
2023-06-22T01:23:03.685Z,24.85
2023-06-22T01:24:06.397Z,24.91
2023-06-22T01:25:03.641Z,24.73
2023-06-22T01:26:03.614Z,24.78
2023-06-22T01:27:03.576Z,24.88
2023-06-22T01:28:03.544Z,24.88
2023-06-22T01:29:03.510Z,24.84
2023-06-22T01:30:03.493Z,24.86
2023-06-22T01:31:03.461Z,24.76
2023-06-22T01:32:03.445Z,24.76
2023-06-22T01:33:03.411Z,24.85
2023-06-22T01:34:03.381Z,24.80
2023-06-22T01:35:03.358Z,24.85
2023-06-22T01:36:03.345Z,24.76
2023-06-22T01:37:03.294Z,24.80
2023-06-22T01:38:03.289Z,24.74
2023-06-22T01:39:03.236Z,24.74
2023-06-22T01:40:03.217Z,24.73
2023-06-22T01:41:03.194Z,24.74
2023-06-22T01:42:03.154Z,24.74
2023-06-22T01:43:03.135Z,24.73
2023-06-22T01:44:03.102Z,24.60
2023-06-22T01:45:03.079Z,24.76
2023-06-22T01:46:03.043Z,24.61
2023-06-22T01:47:03.036Z,24.61
2023-06-22T01:48:03.049Z,24.63
2023-06-22T01:49:02.962Z,24.58
2023-06-22T01:50:02.946Z,24.68
2023-06-22T01:51:02.910Z,24.57
2023-06-22T01:52:02.881Z,24.63
2023-06-22T01:53:02.851Z,24.69
2023-06-22T01:54:02.835Z,24.58
2023-06-22T01:55:02.812Z,24.60
2023-06-22T01:56:02.775Z,24.69
2023-06-22T01:57:02.757Z,24.65
2023-06-22T01:58:02.716Z,24.68
2023-06-22T01:59:02.699Z,24.51
2023-06-22T02:00:02.662Z,24.55
2023-06-22T02:01:02.645Z,24.57
2023-06-22T02:02:02.719Z,24.51
2023-06-22T02:03:02.680Z,24.53
2023-06-22T02:04:02.693Z,24.51
2023-06-22T02:05:02.520Z,24.53
2023-06-22T02:06:02.496Z,24.50
2023-06-22T02:07:02.459Z,24.51
2023-06-22T02:08:02.434Z,24.51
2023-06-22T02:09:02.465Z,24.48
2023-06-22T02:10:02.378Z,24.51
2023-06-22T02:11:02.358Z,24.61
2023-06-22T02:12:02.355Z,24.51
2023-06-22T02:13:02.363Z,24.50
2023-06-22T02:14:02.268Z,24.54
2023-06-22T02:15:02.241Z,24.54
2023-06-22T02:16:02.224Z,24.69
2023-06-22T02:17:02.211Z,24.47
2023-06-22T02:18:02.177Z,24.55
2023-06-22T02:19:02.123Z,24.48
2023-06-22T02:20:02.126Z,24.39
2023-06-22T02:21:02.069Z,24.55
2023-06-22T02:22:02.050Z,24.57
2023-06-22T02:23:02.014Z,24.58
2023-06-22T02:24:01.986Z,24.55
2023-06-22T02:25:01.958Z,24.53
2023-06-22T02:26:01.949Z,24.51
2023-06-22T02:27:01.902Z,24.39
2023-06-22T02:28:01.882Z,24.43
2023-06-22T02:29:01.863Z,24.40
2023-06-22T02:30:01.828Z,24.42
2023-06-22T02:31:01.902Z,24.40
2023-06-22T02:32:01.870Z,24.42
2023-06-22T02:33:01.765Z,24.39
2023-06-22T02:34:01.703Z,24.40
2023-06-22T02:35:01.681Z,24.43
2023-06-22T02:36:01.659Z,24.39
2023-06-22T02:37:01.622Z,24.45
2023-06-22T02:38:01.603Z,24.36
2023-06-22T02:39:01.571Z,24.40
2023-06-22T02:40:01.541Z,24.40
2023-06-22T02:41:01.508Z,24.47
2023-06-22T02:42:01.500Z,24.38
2023-06-22T02:43:01.477Z,24.40
2023-06-22T02:44:01.427Z,24.38
2023-06-22T02:45:01.428Z,24.36
2023-06-22T02:46:01.380Z,24.51
2023-06-22T02:47:01.356Z,24.40
2023-06-22T02:48:01.442Z,24.39
2023-06-22T02:49:01.285Z,24.39
2023-06-22T02:50:01.307Z,24.42
2023-06-22T02:51:01.234Z,24.48
2023-06-22T02:52:01.237Z,24.47
2023-06-22T02:53:01.196Z,24.39
2023-06-22T02:54:01.151Z,24.38
2023-06-22T02:55:01.119Z,24.45
2023-06-22T02:56:01.100Z,24.53
2023-06-22T02:57:01.078Z,24.48
2023-06-22T02:58:01.227Z,24.48
2023-06-22T02:59:01.017Z,24.50
2023-06-22T03:00:00.980Z,24.45
2023-06-22T03:01:01.005Z,24.50
2023-06-22T03:02:00.932Z,24.42
2023-06-22T03:03:01.178Z,24.29
2023-06-22T03:04:00.940Z,24.21
2023-06-22T03:05:00.844Z,24.32
2023-06-22T03:06:00.813Z,24.35
2023-06-22T03:07:00.785Z,24.29
2023-06-22T03:08:00.781Z,24.30
2023-06-22T03:09:00.734Z,24.36
2023-06-22T03:10:00.714Z,24.35
2023-06-22T03:11:00.679Z,24.33
2023-06-22T03:12:00.646Z,24.35
2023-06-22T03:13:00.621Z,24.35
2023-06-22T03:14:00.595Z,24.43
2023-06-22T03:15:00.565Z,24.33
2023-06-22T03:16:00.539Z,24.38
2023-06-22T03:17:00.501Z,24.36
2023-06-22T03:18:00.555Z,24.33
2023-06-22T03:19:00.461Z,24.40
2023-06-22T03:20:00.420Z,24.35
2023-06-22T03:21:00.398Z,24.30
2023-06-22T03:22:00.363Z,24.36
2023-06-22T03:23:00.345Z,24.32
2023-06-22T03:24:00.310Z,24.38
2023-06-22T03:25:00.298Z,24.40
2023-06-22T03:26:00.254Z,24.35
2023-06-22T03:27:00.232Z,24.30
2023-06-22T03:28:00.208Z,24.30
2023-06-22T03:29:00.174Z,24.35
2023-06-22T03:30:00.815Z,24.32
2023-06-22T03:31:00.122Z,24.32
2023-06-22T03:33:00.124Z,24.35
2023-06-22T03:34:00.042Z,24.35
2023-06-22T03:35:00.013Z,24.26
2023-06-22T03:35:59.980Z,24.33
2023-06-22T03:36:59.948Z,24.38
2023-06-22T03:37:59.922Z,24.29
2023-06-22T03:38:59.894Z,24.29
2023-06-22T03:39:59.869Z,24.28
2023-06-22T03:40:59.835Z,24.28
2023-06-22T03:41:59.808Z,24.29
2023-06-22T03:42:59.785Z,24.29
2023-06-22T03:43:59.752Z,24.33
2023-06-22T03:44:59.727Z,24.33
2023-06-22T03:45:59.726Z,24.33
2023-06-22T03:46:59.669Z,24.38
2023-06-22T03:47:59.655Z,24.43
2023-06-22T03:48:59.634Z,24.36
2023-06-22T03:49:59.603Z,24.38
2023-06-22T03:50:59.556Z,24.36
2023-06-22T03:51:59.520Z,24.43
2023-06-22T03:52:59.496Z,24.42
2023-06-22T03:53:59.469Z,24.38
2023-06-22T03:54:59.443Z,24.40
2023-06-22T03:55:59.419Z,24.39
2023-06-22T03:56:59.388Z,24.45
2023-06-22T03:57:59.350Z,24.42
2023-06-22T03:58:59.326Z,24.43
2023-06-22T03:59:59.291Z,24.40
2023-06-22T04:00:59.282Z,24.39
2023-06-22T04:01:59.238Z,24.43
2023-06-22T04:02:59.273Z,24.40
2023-06-22T04:03:59.296Z,24.43
2023-06-22T04:05:00.409Z,24.43
2023-06-22T04:05:59.131Z,24.42
2023-06-22T04:06:59.120Z,24.36
2023-06-22T04:07:59.072Z,24.38
2023-06-22T04:08:59.056Z,24.36
2023-06-22T04:09:59.018Z,24.35
2023-06-22T04:10:59.010Z,24.40
2023-06-22T04:11:58.964Z,24.38
2023-06-22T04:12:58.935Z,24.39
2023-06-22T04:13:58.922Z,24.35
2023-06-22T04:14:58.878Z,24.30
2023-06-22T04:15:58.841Z,24.38
2023-06-22T04:16:58.816Z,24.30
2023-06-22T04:17:58.932Z,24.33
2023-06-22T04:18:58.772Z,24.30
2023-06-22T04:19:58.735Z,24.35
2023-06-22T04:20:58.714Z,24.11
2023-06-22T04:21:58.689Z,24.06
2023-06-22T04:22:58.651Z,24.11
2023-06-22T04:23:58.620Z,24.03
2023-06-22T04:24:58.609Z,23.83
2023-06-22T04:25:58.625Z,23.69
2023-06-22T04:26:58.612Z,23.68
2023-06-22T04:27:58.630Z,23.65
2023-06-22T04:28:58.484Z,23.58
2023-06-22T04:29:58.453Z,23.62
2023-06-22T04:30:58.438Z,23.62
2023-06-22T04:31:58.474Z,23.63
2023-06-22T04:32:58.392Z,23.62
2023-06-22T04:33:58.337Z,23.61
2023-06-22T04:34:58.311Z,23.59
2023-06-22T04:35:58.281Z,23.69
2023-06-22T04:36:58.262Z,23.66
2023-06-22T04:37:58.229Z,23.68
2023-06-22T04:38:58.198Z,23.74
2023-06-22T04:39:58.172Z,23.71
2023-06-22T04:40:58.145Z,23.80
2023-06-22T04:41:58.110Z,23.86
2023-06-22T04:42:58.095Z,23.80
2023-06-22T04:43:58.067Z,23.76
2023-06-22T04:44:59.952Z,23.80
2023-06-22T04:45:57.993Z,23.76
2023-06-22T04:46:57.969Z,23.81
2023-06-22T04:47:57.970Z,23.80
2023-06-22T04:48:57.923Z,23.71
2023-06-22T04:49:57.888Z,23.80
2023-06-22T04:50:57.887Z,23.69
2023-06-22T04:51:57.822Z,23.69
2023-06-22T04:52:57.811Z,23.73
2023-06-22T04:53:57.780Z,23.69
2023-06-22T04:54:57.753Z,23.68
2023-06-22T04:55:57.714Z,23.65
2023-06-22T04:56:57.740Z,23.61
2023-06-22T04:57:57.659Z,23.62
2023-06-22T04:58:57.630Z,23.63
2023-06-22T04:59:57.597Z,23.59
2023-06-22T05:00:57.579Z,23.69
2023-06-22T05:01:57.541Z,23.68
2023-06-22T05:03:07.033Z,23.73
2023-06-22T05:03:57.614Z,23.71
2023-06-22T05:04:57.594Z,23.78
2023-06-22T05:05:57.442Z,23.74
2023-06-22T05:06:57.413Z,23.78
2023-06-22T05:07:57.370Z,23.68
2023-06-22T05:08:57.353Z,23.69
2023-06-22T05:09:57.321Z,23.73
2023-06-22T05:11:05.105Z,23.58
2023-06-22T05:11:57.265Z,23.63
2023-06-22T05:12:57.239Z,23.54
2023-06-22T05:13:57.213Z,23.63
2023-06-22T05:14:57.177Z,23.62
2023-06-22T05:15:57.160Z,23.69
2023-06-22T05:16:57.120Z,23.68
2023-06-22T05:17:57.168Z,23.66
2023-06-22T05:18:57.126Z,23.81
2023-06-22T05:19:57.036Z,23.74
2023-06-22T05:20:57.014Z,23.77
2023-06-22T05:21:56.989Z,23.78
2023-06-22T05:22:56.948Z,23.87
2023-06-22T05:23:56.925Z,23.86
2023-06-22T05:24:57.186Z,23.86
2023-06-22T05:25:56.870Z,23.86
2023-06-22T05:26:56.842Z,23.92
2023-06-22T05:27:56.805Z,23.81
2023-06-22T05:28:56.788Z,23.83
2023-06-22T05:29:56.765Z,23.69
2023-06-22T05:30:56.756Z,23.73
2023-06-22T05:31:56.750Z,23.73
2023-06-22T05:32:56.706Z,23.80
2023-06-22T05:33:56.640Z,23.86
2023-06-22T05:34:56.614Z,23.84
2023-06-22T05:35:56.582Z,23.92
2023-06-22T05:36:57.240Z,23.78
2023-06-22T05:37:56.548Z,23.71
2023-06-22T05:38:56.512Z,23.71
2023-06-22T05:39:56.469Z,23.80
2023-06-22T05:40:56.445Z,23.74
2023-06-22T05:41:56.460Z,23.87
2023-06-22T05:42:56.385Z,23.78
2023-06-22T05:43:56.357Z,23.86
2023-06-22T05:44:56.339Z,23.88
2023-06-22T05:45:56.294Z,23.78
2023-06-22T05:46:56.312Z,23.93
2023-06-22T05:47:56.279Z,23.84
2023-06-22T05:48:56.216Z,23.92
2023-06-22T05:49:56.234Z,23.91
2023-06-22T05:50:56.162Z,23.86
2023-06-22T05:51:56.129Z,23.93
2023-06-22T05:52:56.109Z,23.96
2023-06-22T05:53:56.100Z,23.88
2023-06-22T05:54:56.056Z,23.92
2023-06-22T05:55:56.019Z,23.96
2023-06-22T05:56:56.009Z,23.98
2023-06-22T05:57:55.959Z,24.01
2023-06-22T05:58:55.925Z,23.91
2023-06-22T05:59:55.895Z,23.92
2023-06-22T06:00:55.893Z,24.02
2023-06-22T06:01:55.916Z,24.03
2023-06-22T06:02:55.851Z,24.08
2023-06-22T06:03:55.837Z,24.16
2023-06-22T06:04:55.756Z,24.17
2023-06-22T06:05:55.732Z,24.18
2023-06-22T06:06:55.716Z,24.18
2023-06-22T06:07:55.674Z,24.28
2023-06-22T06:08:55.647Z,24.32
2023-06-22T06:09:55.716Z,24.30
2023-06-22T06:10:55.597Z,24.39
2023-06-22T06:11:55.559Z,24.38
2023-06-22T06:12:55.566Z,24.32
2023-06-22T06:13:55.509Z,24.40
2023-06-22T06:14:55.476Z,24.40
2023-06-22T06:15:55.446Z,24.42
2023-06-22T06:16:55.424Z,24.35
2023-06-22T06:17:55.438Z,24.36
2023-06-22T06:18:55.362Z,24.38
2023-06-22T06:19:55.335Z,24.35
2023-06-22T06:20:55.308Z,24.48
2023-06-22T06:21:55.289Z,24.53
2023-06-22T06:22:55.257Z,24.54
2023-06-22T06:23:55.237Z,24.60
2023-06-22T06:24:55.207Z,24.61
2023-06-22T06:25:55.176Z,24.61
2023-06-22T06:26:55.149Z,24.68
2023-06-22T06:27:55.108Z,24.77
2023-06-22T06:28:55.090Z,24.77
2023-06-22T06:29:55.061Z,24.84
2023-06-22T06:30:55.027Z,24.89
2023-06-22T06:31:55.212Z,24.86
2023-06-22T06:32:55.016Z,24.89
2023-06-22T06:33:54.973Z,24.93
2023-06-22T06:34:54.924Z,25.03
2023-06-22T06:35:54.892Z,25.01
2023-06-22T06:36:54.908Z,25.04
2023-06-22T06:37:54.840Z,25.07
2023-06-22T06:38:54.806Z,25.11
2023-06-22T06:39:54.779Z,25.17
2023-06-22T06:40:54.765Z,25.28
2023-06-22T06:41:54.732Z,25.32
2023-06-22T06:42:54.694Z,25.28
2023-06-22T06:43:54.674Z,25.25
2023-06-22T06:44:54.741Z,25.36
2023-06-22T06:45:54.660Z,25.23
2023-06-22T06:46:54.589Z,25.35
2023-06-22T06:47:54.639Z,25.33
2023-06-22T06:48:54.530Z,25.38
2023-06-22T06:49:54.518Z,25.33
2023-06-22T06:50:54.474Z,25.50
2023-06-22T06:51:54.452Z,25.48
2023-06-22T06:52:54.432Z,25.48
2023-06-22T06:53:54.397Z,25.47
2023-06-22T06:54:54.377Z,25.53
2023-06-22T06:55:54.345Z,25.54
2023-06-22T06:56:54.367Z,25.62
2023-06-22T06:57:54.283Z,25.65
2023-06-22T06:58:54.267Z,25.70
2023-06-22T06:59:54.255Z,25.69
2023-06-22T07:00:54.336Z,25.68
2023-06-22T07:01:54.256Z,25.75
2023-06-22T07:02:54.207Z,25.85
2023-06-22T07:03:54.137Z,25.81
2023-06-22T07:04:54.098Z,25.78
2023-06-22T07:05:54.068Z,25.80
2023-06-22T07:06:54.041Z,25.83
2023-06-22T07:07:54.013Z,25.85
2023-06-22T07:08:53.990Z,25.90
2023-06-22T07:09:53.964Z,25.90
2023-06-22T07:10:53.937Z,25.95
2023-06-22T07:11:53.901Z,26.02
2023-06-22T07:12:53.883Z,26.03
2023-06-22T07:13:53.864Z,26.06
2023-06-22T07:14:53.833Z,26.10
2023-06-22T07:15:53.794Z,26.06
2023-06-22T07:16:53.798Z,26.06
2023-06-22T07:17:53.786Z,26.05
2023-06-22T07:18:53.718Z,26.03
2023-06-22T07:19:53.687Z,26.00
2023-06-22T07:20:53.676Z,26.09
2023-06-22T07:21:53.629Z,26.07
2023-06-22T07:22:53.614Z,26.03
2023-06-22T07:23:53.581Z,26.28
2023-06-22T07:24:53.568Z,26.19
2023-06-22T07:25:53.526Z,26.13
2023-06-22T07:26:53.506Z,26.07
2023-06-22T07:27:53.485Z,26.13
2023-06-22T07:28:53.442Z,26.18
2023-06-22T07:29:53.414Z,26.18
2023-06-22T07:30:53.435Z,26.18
2023-06-22T07:31:53.417Z,26.19
2023-06-22T07:32:53.451Z,26.19
2023-06-22T07:33:53.307Z,26.25
2023-06-22T07:34:53.297Z,26.26
2023-06-22T07:35:53.252Z,26.26
2023-06-22T07:36:53.232Z,26.38
2023-06-22T07:37:53.200Z,26.34
2023-06-22T07:38:53.179Z,26.40
2023-06-22T07:39:53.148Z,26.43
2023-06-22T07:40:53.121Z,26.41
2023-06-22T07:41:53.108Z,26.44
2023-06-22T07:42:53.063Z,26.48
2023-06-22T07:43:53.057Z,26.52
2023-06-22T07:44:53.016Z,26.56
2023-06-22T07:45:53.015Z,26.56
2023-06-22T07:46:52.989Z,26.53
2023-06-22T07:47:52.981Z,26.51
2023-06-22T07:48:54.861Z,26.55
2023-06-22T07:49:52.885Z,26.58
2023-06-22T07:50:52.861Z,26.56
2023-06-22T07:51:52.827Z,26.59
2023-06-22T07:52:52.804Z,26.71
2023-06-22T07:53:52.779Z,26.68
2023-06-22T07:54:52.751Z,26.66
2023-06-22T07:55:52.731Z,26.73
2023-06-22T07:56:52.697Z,26.68
2023-06-22T07:57:52.684Z,26.77
2023-06-22T07:58:52.644Z,26.80
2023-06-22T07:59:52.630Z,26.77
2023-06-22T08:00:52.591Z,26.84
2023-06-22T08:01:52.697Z,26.88
2023-06-22T08:02:52.630Z,26.89
2023-06-22T08:03:52.654Z,26.93
2023-06-22T08:04:53.636Z,26.93
2023-06-22T08:05:52.459Z,26.99
2023-06-22T08:06:52.430Z,27.03
2023-06-22T08:07:52.408Z,27.00
2023-06-22T08:08:52.386Z,27.07
2023-06-22T08:09:52.361Z,27.03
2023-06-22T08:10:52.322Z,27.11
2023-06-22T08:11:52.300Z,27.15
2023-06-22T08:12:52.268Z,27.14
2023-06-22T08:13:52.253Z,27.11
2023-06-22T08:14:52.219Z,27.18
2023-06-22T08:15:52.198Z,27.21
2023-06-22T08:16:52.159Z,27.25
2023-06-22T08:17:52.153Z,27.21
2023-06-22T08:18:52.115Z,27.27
2023-06-22T08:19:52.078Z,27.33
2023-06-22T08:20:52.078Z,27.35
2023-06-22T08:21:52.054Z,27.33
2023-06-22T08:22:52.007Z,27.29
2023-06-22T08:23:51.979Z,27.27
2023-06-22T08:24:51.971Z,27.35
2023-06-22T08:25:51.928Z,27.36
2023-06-22T08:26:51.926Z,27.40
2023-06-22T08:27:51.872Z,27.40
2023-06-22T08:28:51.870Z,27.45
2023-06-22T08:29:51.844Z,27.32
2023-06-22T08:30:51.793Z,27.47
2023-06-22T08:31:51.790Z,27.51
2023-06-22T08:32:51.778Z,27.47
2023-06-22T08:33:51.872Z,27.51
2023-06-22T08:34:51.716Z,27.49
2023-06-22T08:35:51.662Z,27.55
2023-06-22T08:36:51.635Z,27.63
2023-06-22T08:37:51.642Z,27.54
2023-06-22T08:38:51.587Z,27.68
2023-06-22T08:39:51.552Z,27.65
2023-06-22T08:40:51.533Z,27.65
2023-06-22T08:41:51.504Z,27.77
2023-06-22T08:42:51.482Z,27.80
2023-06-22T08:43:51.460Z,27.85
2023-06-22T08:44:51.438Z,27.96
2023-06-22T08:45:51.396Z,27.98
2023-06-22T08:46:52.372Z,28.02
2023-06-22T08:47:51.384Z,28.04
2023-06-22T08:48:51.326Z,28.14
2023-06-22T08:49:51.304Z,28.08
2023-06-22T08:50:51.301Z,28.11
2023-06-22T08:51:51.253Z,28.23
2023-06-22T08:52:51.247Z,28.22
2023-06-22T08:53:51.209Z,28.20
2023-06-22T08:54:51.169Z,28.26
2023-06-22T08:55:51.138Z,28.27
2023-06-22T08:56:51.119Z,28.29
2023-06-22T08:57:51.096Z,28.37
2023-06-22T08:58:51.070Z,28.49
2023-06-22T08:59:51.051Z,28.56
2023-06-22T09:00:51.017Z,28.60
2023-06-22T09:01:50.989Z,28.41
2023-06-22T09:02:51.158Z,28.35
2023-06-22T09:03:51.123Z,28.45
2023-06-22T09:04:51.053Z,28.57
2023-06-22T09:05:50.907Z,28.56
2023-06-22T09:06:50.865Z,28.56
2023-06-22T09:07:50.838Z,28.60
2023-06-22T09:08:50.846Z,28.54
2023-06-22T09:09:50.788Z,28.48
2023-06-22T09:10:50.756Z,28.54
2023-06-22T09:11:50.743Z,28.59
2023-06-22T09:12:50.712Z,28.62
2023-06-22T09:13:50.682Z,28.72
2023-06-22T09:14:50.688Z,28.63
2023-06-22T09:15:50.644Z,28.75
2023-06-22T09:16:50.614Z,28.76
2023-06-22T09:17:50.605Z,28.70
2023-06-22T09:18:50.559Z,28.82
2023-06-22T09:19:50.538Z,28.75
2023-06-22T09:20:50.513Z,28.81
2023-06-22T09:21:50.485Z,28.84
2023-06-22T09:22:50.494Z,28.88
2023-06-22T09:23:50.439Z,28.85
2023-06-22T09:24:50.424Z,28.89
2023-06-22T09:25:50.393Z,28.98
2023-06-22T09:26:50.366Z,28.91
2023-06-22T09:27:50.346Z,28.94
2023-06-22T09:28:50.311Z,28.94
2023-06-22T09:29:50.291Z,29.01
2023-06-22T09:30:50.259Z,29.05
2023-06-22T09:31:50.267Z,29.08
2023-06-22T09:32:50.233Z,29.16
2023-06-22T09:33:50.187Z,29.16
2023-06-22T09:34:50.165Z,29.22
2023-06-22T09:35:50.132Z,29.31
2023-06-22T09:36:50.110Z,29.38
2023-06-22T09:37:50.078Z,29.47
2023-06-22T09:38:50.050Z,29.50
2023-06-22T09:39:50.039Z,29.51
2023-06-22T09:40:50.191Z,29.56
2023-06-22T09:41:49.989Z,29.65
2023-06-22T09:42:49.955Z,29.59
2023-06-22T09:43:49.950Z,29.63
2023-06-22T09:44:49.907Z,29.66
2023-06-22T09:45:49.933Z,29.61
2023-06-22T09:46:49.860Z,29.73
2023-06-22T09:47:49.913Z,29.78
2023-06-22T09:48:49.806Z,29.65
2023-06-22T09:49:49.789Z,29.60
2023-06-22T09:50:49.755Z,29.61
2023-06-22T09:51:49.737Z,29.59
2023-06-22T09:52:49.711Z,29.53
2023-06-22T09:53:49.697Z,29.51
2023-06-22T09:54:49.681Z,29.54
2023-06-22T09:55:50.959Z,29.53
2023-06-22T09:56:49.674Z,29.38
2023-06-22T09:57:49.586Z,29.31
2023-06-22T09:58:49.578Z,29.29
2023-06-22T09:59:50.976Z,29.27
2023-06-22T10:00:49.507Z,29.26
2023-06-22T10:01:49.489Z,29.20
2023-06-22T10:02:49.678Z,29.12
2023-06-22T10:03:49.633Z,29.07
2023-06-22T10:04:49.495Z,29.16
2023-06-22T10:05:49.379Z,29.14
2023-06-22T10:06:49.351Z,29.04
2023-06-22T10:07:49.339Z,29.08
2023-06-22T10:08:49.343Z,28.98
2023-06-22T10:09:49.283Z,28.97
2023-06-22T10:10:49.619Z,28.89
2023-06-22T10:11:49.237Z,28.74
2023-06-22T10:12:49.247Z,28.67
2023-06-22T10:13:49.182Z,28.64
2023-06-22T10:14:49.154Z,28.51
2023-06-22T10:15:49.131Z,28.57
2023-06-22T10:16:49.148Z,28.49
2023-06-22T10:17:49.106Z,28.42
2023-06-22T10:18:49.062Z,28.33
2023-06-22T10:19:49.047Z,28.20
2023-06-22T10:20:49.004Z,28.22
2023-06-22T10:21:48.980Z,28.10
2023-06-22T10:22:48.954Z,27.98
2023-06-22T10:23:48.922Z,28.01
2023-06-22T10:24:48.923Z,27.96
2023-06-22T10:25:48.873Z,27.83
2023-06-22T10:26:48.854Z,27.73
2023-06-22T10:27:48.817Z,27.67
2023-06-22T10:28:48.836Z,27.45
2023-06-22T10:29:48.783Z,27.42
2023-06-22T10:30:48.855Z,27.26
2023-06-22T10:31:48.727Z,27.25
2023-06-22T10:32:48.784Z,27.11
2023-06-22T10:33:48.659Z,27.08
2023-06-22T10:34:48.638Z,26.95
2023-06-22T10:35:48.608Z,26.77
2023-06-22T10:36:48.597Z,26.60
2023-06-22T10:37:48.565Z,26.45
2023-06-22T10:38:48.534Z,26.41
2023-06-22T10:39:48.512Z,26.22
2023-06-22T10:40:48.477Z,26.21
2023-06-22T10:41:48.443Z,26.07
2023-06-22T10:42:48.423Z,25.93
2023-06-22T10:43:48.393Z,25.85
2023-06-22T10:44:48.379Z,25.77
2023-06-22T10:45:48.340Z,25.66
2023-06-22T10:46:48.312Z,25.68
2023-06-22T10:47:48.357Z,25.53
2023-06-22T10:48:48.256Z,25.59
2023-06-22T10:49:48.237Z,25.38
2023-06-22T10:50:48.243Z,25.29
2023-06-22T10:51:48.174Z,25.18
2023-06-22T10:52:48.152Z,25.14
2023-06-22T10:53:48.115Z,25.16
2023-06-22T10:54:48.094Z,25.10
2023-06-22T10:55:57.236Z,25.06
2023-06-22T10:56:48.037Z,24.96
2023-06-22T10:57:48.202Z,24.92
2023-06-22T10:58:47.973Z,24.80
2023-06-22T10:59:47.939Z,24.93
2023-06-22T11:00:47.931Z,24.80
2023-06-22T11:01:47.935Z,24.80
2023-06-22T11:02:48.114Z,24.76
2023-06-22T11:03:47.862Z,24.57
2023-06-22T11:04:47.826Z,24.69
2023-06-22T11:05:47.775Z,24.54
2023-06-22T11:06:47.753Z,24.57
2023-06-22T11:07:47.733Z,24.54
2023-06-22T11:08:57.708Z,24.60
2023-06-22T11:09:47.665Z,24.50
2023-06-22T11:10:47.633Z,24.51
2023-06-22T11:11:47.604Z,24.58
2023-06-22T11:12:47.584Z,24.60
2023-06-22T11:13:47.548Z,24.58
2023-06-22T11:14:47.521Z,24.58
2023-06-22T11:15:47.491Z,24.55
2023-06-22T11:16:47.463Z,24.50
2023-06-22T11:17:47.445Z,24.60
2023-06-22T11:18:47.410Z,24.57
2023-06-22T11:19:47.390Z,24.50
2023-06-22T11:20:47.356Z,24.54
2023-06-22T11:21:47.341Z,24.50
2023-06-22T11:22:47.313Z,24.58
2023-06-22T11:23:47.260Z,24.63
2023-06-22T11:24:47.237Z,24.63
2023-06-22T11:25:47.205Z,24.61
2023-06-22T11:26:47.192Z,24.80
2023-06-22T11:27:47.958Z,24.84
2023-06-22T11:28:47.117Z,24.96
2023-06-22T11:29:47.096Z,24.96
2023-06-22T11:30:47.089Z,25.08
2023-06-22T11:31:47.121Z,25.13
2023-06-22T11:32:47.143Z,25.23
2023-06-22T11:33:46.995Z,25.26
2023-06-22T11:34:46.960Z,25.32
2023-06-22T11:35:46.929Z,25.36
2023-06-22T11:36:46.942Z,25.35
2023-06-22T11:37:46.870Z,25.17
2023-06-22T11:38:46.865Z,25.11
2023-06-22T11:40:46.789Z,25.16
2023-06-22T11:41:46.760Z,25.11
2023-06-22T11:42:46.736Z,25.17
2023-06-22T11:43:46.712Z,25.23
2023-06-22T11:44:46.686Z,25.22
2023-06-22T11:45:46.647Z,25.23
2023-06-22T11:46:46.627Z,25.25
2023-06-22T11:47:46.722Z,25.31
2023-06-22T11:48:46.618Z,25.35
2023-06-22T11:49:46.539Z,25.53
2023-06-22T11:50:46.519Z,25.58
2023-06-22T11:51:46.488Z,25.59
2023-06-22T11:52:46.455Z,25.66
2023-06-22T11:53:46.432Z,25.65
2023-06-22T11:54:46.395Z,25.72
2023-06-22T11:55:46.388Z,25.66
2023-06-22T11:56:46.362Z,25.80
2023-06-22T11:57:46.313Z,25.81
2023-06-22T11:58:46.292Z,25.83
2023-06-22T11:59:46.274Z,25.84
2023-06-22T12:00:51.540Z,25.87
2023-06-22T12:01:46.212Z,25.95
2023-06-22T12:02:46.515Z,25.91
2023-06-22T12:03:46.205Z,25.95
2023-06-22T12:04:46.176Z,26.03
2023-06-22T12:05:46.127Z,26.00
2023-06-22T12:06:46.067Z,25.99
2023-06-22T12:07:46.041Z,26.09
2023-06-22T12:08:46.025Z,26.05
2023-06-22T12:09:45.988Z,26.05
2023-06-22T12:10:45.957Z,26.18
2023-06-22T12:11:45.930Z,26.19
2023-06-22T12:12:45.903Z,26.28
2023-06-22T12:13:45.882Z,26.34
2023-06-22T12:14:45.851Z,26.38
2023-06-22T12:15:45.828Z,26.45
2023-06-22T12:16:45.802Z,26.38
2023-06-22T12:17:45.790Z,26.45
2023-06-22T12:18:45.752Z,26.43
2023-06-22T12:19:45.719Z,26.48
2023-06-22T12:20:45.697Z,26.56
2023-06-22T12:21:45.671Z,26.55
2023-06-22T12:22:45.634Z,26.58
2023-06-22T12:23:45.608Z,26.62
2023-06-22T12:24:45.577Z,26.62
2023-06-22T12:25:45.554Z,26.62
2023-06-22T12:26:45.524Z,26.56
2023-06-22T12:27:45.501Z,26.70
2023-06-22T12:28:45.493Z,26.68
2023-06-22T12:29:45.460Z,26.65
2023-06-22T12:30:45.424Z,26.53
2023-06-22T12:31:45.475Z,26.55
2023-06-22T12:32:45.392Z,26.59
2023-06-22T12:33:45.361Z,26.59
2023-06-22T12:34:45.314Z,26.66
2023-06-22T12:35:45.284Z,26.70
2023-06-22T12:36:45.514Z,26.66
2023-06-22T12:37:45.289Z,26.65
2023-06-22T12:38:45.208Z,26.68
2023-06-22T12:39:45.187Z,26.74
2023-06-22T12:40:45.145Z,26.70
2023-06-22T12:41:45.164Z,26.78
2023-06-22T12:42:45.113Z,26.78
2023-06-22T12:43:45.066Z,26.90
2023-06-22T12:44:45.091Z,26.81
2023-06-22T12:45:45.016Z,26.99
2023-06-22T12:46:44.993Z,26.90
2023-06-22T12:47:45.002Z,26.77
2023-06-22T12:48:44.955Z,26.80
2023-06-22T12:49:44.920Z,26.78
2023-06-22T12:50:44.900Z,26.80
2023-06-22T12:51:44.884Z,26.97
2023-06-22T12:52:44.929Z,26.93
2023-06-22T12:53:44.816Z,26.84